sensor_id;sensor_type;location;lat;lon;timestamp;P1;durP1;ratioP1;P2;durP2;ratioP2
52948;SDS011;38812;50.942;3.644;2022-07-23T00:02:21;7.85;;;4.78;;
52948;SDS011;38812;50.942;3.644;2022-07-23T00:04:46;6.85;;;4.30;;
52948;SDS011;38812;50.942;3.644;2022-07-23T00:07:11;10.35;;;4.90;;
52948;SDS011;38812;50.942;3.644;2022-07-23T00:09:37;7.13;;;4.75;;
52948;SDS011;38812;50.942;3.644;2022-07-23T00:12:02;6.13;;;4.43;;
52948;SDS011;38812;50.942;3.644;2022-07-23T00:14:28;7.55;;;4.55;;
52948;SDS011;38812;50.942;3.644;2022-07-23T00:16:53;5.47;;;4.30;;
52948;SDS011;38812;50.942;3.644;2022-07-23T00:19:19;7.03;;;4.10;;
52948;SDS011;38812;50.942;3.644;2022-07-23T00:21:44;7.07;;;4.68;;
52948;SDS011;38812;50.942;3.644;2022-07-23T00:24:09;8.85;;;4.63;;
52948;SDS011;38812;50.942;3.644;2022-07-23T00:26:35;12.00;;;4.65;;
52948;SDS011;38812;50.942;3.644;2022-07-23T00:29:00;5.82;;;4.80;;
52948;SDS011;38812;50.942;3.644;2022-07-23T00:31:25;6.40;;;4.47;;
52948;SDS011;38812;50.942;3.644;2022-07-23T00:33:52;10.68;;;5.38;;
52948;SDS011;38812;50.942;3.644;2022-07-23T00:36:21;6.35;;;4.85;;
52948;SDS011;38812;50.942;3.644;2022-07-23T00:38:48;10.38;;;5.43;;
52948;SDS011;38812;50.942;3.644;2022-07-23T00:41:14;7.05;;;4.82;;
52948;SDS011;38812;50.942;3.644;2022-07-23T00:43:39;10.20;;;5.88;;
52948;SDS011;38812;50.942;3.644;2022-07-23T00:46:04;8.23;;;5.78;;
52948;SDS011;38812;50.942;3.644;2022-07-23T00:48:30;10.90;;;5.68;;
52948;SDS011;38812;50.942;3.644;2022-07-23T00:50:55;10.02;;;5.78;;
52948;SDS011;38812;50.942;3.644;2022-07-23T00:53:21;7.35;;;5.28;;
52948;SDS011;38812;50.942;3.644;2022-07-23T00:55:46;9.85;;;6.18;;
52948;SDS011;38812;50.942;3.644;2022-07-23T00:58:12;7.30;;;5.45;;
52948;SDS011;38812;50.942;3.644;2022-07-23T01:00:38;9.40;;;6.18;;
52948;SDS011;38812;50.942;3.644;2022-07-23T01:03:03;8.82;;;5.60;;
52948;SDS011;38812;50.942;3.644;2022-07-23T01:05:29;9.52;;;5.35;;
52948;SDS011;38812;50.942;3.644;2022-07-23T01:07:54;7.55;;;4.90;;
52948;SDS011;38812;50.942;3.644;2022-07-23T01:10:20;7.32;;;5.45;;
52948;SDS011;38812;50.942;3.644;2022-07-23T01:12:58;13.07;;;6.60;;
52948;SDS011;38812;50.942;3.644;2022-07-23T01:15:24;12.15;;;6.07;;
52948;SDS011;38812;50.942;3.644;2022-07-23T01:17:50;9.00;;;6.50;;
52948;SDS011;38812;50.942;3.644;2022-07-23T01:20:16;13.27;;;6.70;;
52948;SDS011;38812;50.942;3.644;2022-07-23T01:22:41;17.35;;;7.22;;
52948;SDS011;38812;50.942;3.644;2022-07-23T01:25:07;10.52;;;6.55;;
52948;SDS011;38812;50.942;3.644;2022-07-23T01:27:33;8.15;;;6.03;;
52948;SDS011;38812;50.942;3.644;2022-07-23T01:29:59;10.85;;;6.68;;
52948;SDS011;38812;50.942;3.644;2022-07-23T01:32:26;7.25;;;5.75;;
52948;SDS011;38812;50.942;3.644;2022-07-23T01:34:51;9.88;;;6.60;;
52948;SDS011;38812;50.942;3.644;2022-07-23T01:37:17;8.10;;;6.10;;
52948;SDS011;38812;50.942;3.644;2022-07-23T01:39:42;15.50;;;6.05;;
52948;SDS011;38812;50.942;3.644;2022-07-23T01:42:08;9.38;;;6.55;;
52948;SDS011;38812;50.942;3.644;2022-07-23T01:44:33;7.53;;;6.00;;
52948;SDS011;38812;50.942;3.644;2022-07-23T01:46:58;8.93;;;6.57;;
52948;SDS011;38812;50.942;3.644;2022-07-23T01:49:24;8.98;;;6.13;;
52948;SDS011;38812;50.942;3.644;2022-07-23T01:51:49;8.35;;;6.00;;
52948;SDS011;38812;50.942;3.644;2022-07-23T01:54:35;10.45;;;6.90;;
52948;SDS011;38812;50.942;3.644;2022-07-23T01:57:00;11.05;;;5.95;;
52948;SDS011;38812;50.942;3.644;2022-07-23T01:59:26;8.98;;;6.05;;
52948;SDS011;38812;50.942;3.644;2022-07-23T02:01:52;9.68;;;6.38;;
52948;SDS011;38812;50.942;3.644;2022-07-23T02:04:19;9.10;;;6.43;;
52948;SDS011;38812;50.942;3.644;2022-07-23T02:06:48;10.02;;;6.95;;
52948;SDS011;38812;50.942;3.644;2022-07-23T02:09:14;10.50;;;6.78;;
52948;SDS011;38812;50.942;3.644;2022-07-23T02:11:40;15.10;;;7.40;;
52948;SDS011;38812;50.942;3.644;2022-07-23T02:14:05;12.27;;;7.35;;
52948;SDS011;38812;50.942;3.644;2022-07-23T02:16:31;11.45;;;7.00;;
52948;SDS011;38812;50.942;3.644;2022-07-23T02:18:56;7.88;;;6.25;;
52948;SDS011;38812;50.942;3.644;2022-07-23T02:21:22;10.57;;;6.82;;
52948;SDS011;38812;50.942;3.644;2022-07-23T02:23:47;7.70;;;5.90;;
52948;SDS011;38812;50.942;3.644;2022-07-23T02:26:13;8.95;;;6.35;;
52948;SDS011;38812;50.942;3.644;2022-07-23T02:28:38;11.65;;;7.75;;
52948;SDS011;38812;50.942;3.644;2022-07-23T02:31:04;11.43;;;6.68;;
52948;SDS011;38812;50.942;3.644;2022-07-23T02:33:30;9.50;;;7.30;;
52948;SDS011;38812;50.942;3.644;2022-07-23T02:35:55;13.50;;;8.13;;
52948;SDS011;38812;50.942;3.644;2022-07-23T02:38:21;9.40;;;7.15;;
52948;SDS011;38812;50.942;3.644;2022-07-23T02:40:46;11.82;;;7.88;;
52948;SDS011;38812;50.942;3.644;2022-07-23T02:43:12;11.50;;;7.45;;
52948;SDS011;38812;50.942;3.644;2022-07-23T02:45:37;9.80;;;6.45;;
52948;SDS011;38812;50.942;3.644;2022-07-23T02:48:02;8.55;;;6.68;;
52948;SDS011;38812;50.942;3.644;2022-07-23T02:50:28;9.70;;;7.13;;
52948;SDS011;38812;50.942;3.644;2022-07-23T02:52:54;10.85;;;6.97;;
52948;SDS011;38812;50.942;3.644;2022-07-23T02:55:19;8.27;;;6.82;;
52948;SDS011;38812;50.942;3.644;2022-07-23T02:57:44;8.68;;;6.93;;
52948;SDS011;38812;50.942;3.644;2022-07-23T03:00:10;11.75;;;6.40;;
52948;SDS011;38812;50.942;3.644;2022-07-23T03:02:36;13.95;;;6.88;;
52948;SDS011;38812;50.942;3.644;2022-07-23T03:05:01;10.27;;;7.10;;
52948;SDS011;38812;50.942;3.644;2022-07-23T03:07:27;11.82;;;7.05;;
52948;SDS011;38812;50.942;3.644;2022-07-23T03:09:52;10.52;;;6.85;;
52948;SDS011;38812;50.942;3.644;2022-07-23T03:12:17;10.52;;;6.85;;
52948;SDS011;38812;50.942;3.644;2022-07-23T03:14:43;12.23;;;7.38;;
52948;SDS011;38812;50.942;3.644;2022-07-23T03:17:08;14.35;;;7.60;;
52948;SDS011;38812;50.942;3.644;2022-07-23T03:19:34;10.80;;;6.93;;
52948;SDS011;38812;50.942;3.644;2022-07-23T03:21:59;13.50;;;7.35;;
52948;SDS011;38812;50.942;3.644;2022-07-23T03:24:25;9.30;;;7.70;;
52948;SDS011;38812;50.942;3.644;2022-07-23T03:27:10;13.85;;;7.80;;
52948;SDS011;38812;50.942;3.644;2022-07-23T03:29:36;8.25;;;6.93;;
52948;SDS011;38812;50.942;3.644;2022-07-23T03:32:02;7.38;;;6.07;;
52948;SDS011;38812;50.942;3.644;2022-07-23T03:34:28;9.88;;;6.90;;
52948;SDS011;38812;50.942;3.644;2022-07-23T03:36:53;10.52;;;6.78;;
52948;SDS011;38812;50.942;3.644;2022-07-23T03:39:19;10.65;;;7.00;;
52948;SDS011;38812;50.942;3.644;2022-07-23T03:41:44;7.63;;;6.32;;
52948;SDS011;38812;50.942;3.644;2022-07-23T03:44:09;7.90;;;6.45;;
52948;SDS011;38812;50.942;3.644;2022-07-23T03:46:35;8.23;;;6.47;;
52948;SDS011;38812;50.942;3.644;2022-07-23T03:49:00;8.60;;;6.35;;
52948;SDS011;38812;50.942;3.644;2022-07-23T03:51:26;10.32;;;6.85;;
52948;SDS011;38812;50.942;3.644;2022-07-23T03:53:51;10.57;;;7.32;;
52948;SDS011;38812;50.942;3.644;2022-07-23T03:56:16;11.45;;;6.22;;
52948;SDS011;38812;50.942;3.644;2022-07-23T03:58:42;7.85;;;6.40;;
52948;SDS011;38812;50.942;3.644;2022-07-23T04:01:07;10.82;;;6.68;;
52948;SDS011;38812;50.942;3.644;2022-07-23T04:03:32;12.05;;;8.05;;
52948;SDS011;38812;50.942;3.644;2022-07-23T04:05:58;10.13;;;6.90;;
52948;SDS011;38812;50.942;3.644;2022-07-23T04:08:23;7.80;;;6.70;;
52948;SDS011;38812;50.942;3.644;2022-07-23T04:10:50;9.23;;;6.65;;
52948;SDS011;38812;50.942;3.644;2022-07-23T04:13:15;10.85;;;7.55;;
52948;SDS011;38812;50.942;3.644;2022-07-23T04:15:41;13.27;;;7.95;;
52948;SDS011;38812;50.942;3.644;2022-07-23T04:18:06;11.60;;;8.13;;
52948;SDS011;38812;50.942;3.644;2022-07-23T04:20:32;12.18;;;8.25;;
52948;SDS011;38812;50.942;3.644;2022-07-23T04:22:58;11.38;;;8.40;;
52948;SDS011;38812;50.942;3.644;2022-07-23T04:25:23;12.65;;;7.88;;
52948;SDS011;38812;50.942;3.644;2022-07-23T04:27:49;10.60;;;8.00;;
52948;SDS011;38812;50.942;3.644;2022-07-23T04:30:14;10.20;;;7.93;;
52948;SDS011;38812;50.942;3.644;2022-07-23T04:32:39;11.65;;;8.20;;
52948;SDS011;38812;50.942;3.644;2022-07-23T04:35:05;9.15;;;8.18;;
52948;SDS011;38812;50.942;3.644;2022-07-23T04:37:30;12.35;;;8.75;;
52948;SDS011;38812;50.942;3.644;2022-07-23T04:39:56;14.85;;;8.00;;
52948;SDS011;38812;50.942;3.644;2022-07-23T04:42:21;11.68;;;8.80;;
52948;SDS011;38812;50.942;3.644;2022-07-23T04:44:46;13.68;;;8.05;;
52948;SDS011;38812;50.942;3.644;2022-07-23T04:47:12;13.10;;;8.40;;
52948;SDS011;38812;50.942;3.644;2022-07-23T04:49:37;9.93;;;6.63;;
52948;SDS011;38812;50.942;3.644;2022-07-23T04:52:03;9.30;;;7.55;;
52948;SDS011;38812;50.942;3.644;2022-07-23T04:54:28;13.50;;;7.78;;
52948;SDS011;38812;50.942;3.644;2022-07-23T04:56:54;10.73;;;7.32;;
52948;SDS011;38812;50.942;3.644;2022-07-23T04:59:19;10.02;;;7.45;;
52948;SDS011;38812;50.942;3.644;2022-07-23T05:01:44;11.68;;;7.45;;
52948;SDS011;38812;50.942;3.644;2022-07-23T05:04:10;13.35;;;8.07;;
52948;SDS011;38812;50.942;3.644;2022-07-23T05:06:35;10.50;;;7.85;;
52948;SDS011;38812;50.942;3.644;2022-07-23T05:09:00;17.38;;;8.00;;
52948;SDS011;38812;50.942;3.644;2022-07-23T05:11:26;11.38;;;8.23;;
52948;SDS011;38812;50.942;3.644;2022-07-23T05:13:51;8.95;;;7.68;;
52948;SDS011;38812;50.942;3.644;2022-07-23T05:16:16;8.73;;;7.68;;
52948;SDS011;38812;50.942;3.644;2022-07-23T05:18:42;13.98;;;9.25;;
52948;SDS011;38812;50.942;3.644;2022-07-23T05:21:07;16.70;;;11.80;;
52948;SDS011;38812;50.942;3.644;2022-07-23T05:23:32;17.67;;;9.75;;
52948;SDS011;38812;50.942;3.644;2022-07-23T05:25:58;13.23;;;8.45;;
52948;SDS011;38812;50.942;3.644;2022-07-23T05:28:23;8.48;;;6.82;;
52948;SDS011;38812;50.942;3.644;2022-07-23T05:30:49;9.98;;;8.48;;
52948;SDS011;38812;50.942;3.644;2022-07-23T05:33:14;10.05;;;7.47;;
52948;SDS011;38812;50.942;3.644;2022-07-23T05:35:39;11.38;;;7.60;;
52948;SDS011;38812;50.942;3.644;2022-07-23T05:38:05;10.65;;;7.88;;
52948;SDS011;38812;50.942;3.644;2022-07-23T05:40:30;13.25;;;7.43;;
52948;SDS011;38812;50.942;3.644;2022-07-23T05:42:57;10.80;;;7.07;;
52948;SDS011;38812;50.942;3.644;2022-07-23T05:45:22;9.88;;;7.05;;
52948;SDS011;38812;50.942;3.644;2022-07-23T05:47:48;7.88;;;5.60;;
52948;SDS011;38812;50.942;3.644;2022-07-23T05:50:14;8.05;;;5.88;;
52948;SDS011;38812;50.942;3.644;2022-07-23T05:52:41;12.18;;;6.35;;
52948;SDS011;38812;50.942;3.644;2022-07-23T05:55:07;6.50;;;5.63;;
52948;SDS011;38812;50.942;3.644;2022-07-23T05:57:34;7.75;;;6.05;;
52948;SDS011;38812;50.942;3.644;2022-07-23T06:00:00;7.82;;;6.65;;
52948;SDS011;38812;50.942;3.644;2022-07-23T06:02:26;8.20;;;5.72;;
52948;SDS011;38812;50.942;3.644;2022-07-23T06:04:51;11.63;;;6.97;;
52948;SDS011;38812;50.942;3.644;2022-07-23T06:07:17;8.35;;;6.38;;
52948;SDS011;38812;50.942;3.644;2022-07-23T06:09:42;9.23;;;7.38;;
52948;SDS011;38812;50.942;3.644;2022-07-23T06:12:08;7.28;;;5.78;;
52948;SDS011;38812;50.942;3.644;2022-07-23T06:14:33;14.88;;;7.18;;
52948;SDS011;38812;50.942;3.644;2022-07-23T06:16:59;13.18;;;7.22;;
52948;SDS011;38812;50.942;3.644;2022-07-23T06:19:24;8.20;;;7.18;;
52948;SDS011;38812;50.942;3.644;2022-07-23T06:21:50;10.40;;;7.18;;
52948;SDS011;38812;50.942;3.644;2022-07-23T06:24:15;10.57;;;7.90;;
52948;SDS011;38812;50.942;3.644;2022-07-23T06:26:41;11.25;;;7.90;;
52948;SDS011;38812;50.942;3.644;2022-07-23T06:29:06;12.07;;;8.52;;
52948;SDS011;38812;50.942;3.644;2022-07-23T06:31:32;16.08;;;8.38;;
52948;SDS011;38812;50.942;3.644;2022-07-23T06:33:58;10.05;;;7.82;;
52948;SDS011;38812;50.942;3.644;2022-07-23T06:36:23;10.35;;;8.55;;
52948;SDS011;38812;50.942;3.644;2022-07-23T06:38:49;10.07;;;8.48;;
52948;SDS011;38812;50.942;3.644;2022-07-23T06:41:14;9.15;;;7.57;;
52948;SDS011;38812;50.942;3.644;2022-07-23T06:43:40;11.07;;;8.00;;
52948;SDS011;38812;50.942;3.644;2022-07-23T06:46:05;9.48;;;8.07;;
52948;SDS011;38812;50.942;3.644;2022-07-23T06:48:31;13.38;;;8.20;;
52948;SDS011;38812;50.942;3.644;2022-07-23T06:51:02;11.88;;;8.65;;
52948;SDS011;38812;50.942;3.644;2022-07-23T06:53:28;10.65;;;8.27;;
52948;SDS011;38812;50.942;3.644;2022-07-23T06:55:53;11.68;;;8.38;;
52948;SDS011;38812;50.942;3.644;2022-07-23T06:58:18;11.77;;;8.10;;
52948;SDS011;38812;50.942;3.644;2022-07-23T07:00:45;14.00;;;8.48;;
52948;SDS011;38812;50.942;3.644;2022-07-23T07:03:10;12.82;;;8.90;;
52948;SDS011;38812;50.942;3.644;2022-07-23T07:05:36;12.73;;;7.25;;
52948;SDS011;38812;50.942;3.644;2022-07-23T07:08:01;15.05;;;8.85;;
52948;SDS011;38812;50.942;3.644;2022-07-23T07:10:27;14.52;;;9.75;;
52948;SDS011;38812;50.942;3.644;2022-07-23T07:12:52;16.05;;;8.68;;
52948;SDS011;38812;50.942;3.644;2022-07-23T07:15:18;12.65;;;7.72;;
52948;SDS011;38812;50.942;3.644;2022-07-23T07:17:43;13.70;;;7.65;;
52948;SDS011;38812;50.942;3.644;2022-07-23T07:20:09;12.52;;;8.95;;
52948;SDS011;38812;50.942;3.644;2022-07-23T07:22:35;11.65;;;8.55;;
52948;SDS011;38812;50.942;3.644;2022-07-23T07:25:00;20.52;;;8.68;;
52948;SDS011;38812;50.942;3.644;2022-07-23T07:27:26;11.32;;;7.35;;
52948;SDS011;38812;50.942;3.644;2022-07-23T07:29:51;9.98;;;7.88;;
52948;SDS011;38812;50.942;3.644;2022-07-23T07:32:17;10.15;;;7.57;;
52948;SDS011;38812;50.942;3.644;2022-07-23T07:34:42;11.65;;;7.97;;
52948;SDS011;38812;50.942;3.644;2022-07-23T07:37:07;13.75;;;8.02;;
52948;SDS011;38812;50.942;3.644;2022-07-23T07:39:33;13.40;;;8.05;;
52948;SDS011;38812;50.942;3.644;2022-07-23T07:41:58;11.77;;;7.68;;
52948;SDS011;38812;50.942;3.644;2022-07-23T07:44:23;8.68;;;7.38;;
52948;SDS011;38812;50.942;3.644;2022-07-23T07:46:49;13.63;;;7.20;;
52948;SDS011;38812;50.942;3.644;2022-07-23T07:49:14;10.00;;;6.60;;
52948;SDS011;38812;50.942;3.644;2022-07-23T07:51:42;10.48;;;7.15;;
52948;SDS011;38812;50.942;3.644;2022-07-23T07:54:07;7.18;;;6.05;;
52948;SDS011;38812;50.942;3.644;2022-07-23T07:56:33;16.80;;;7.30;;
52948;SDS011;38812;50.942;3.644;2022-07-23T07:58:58;13.15;;;7.35;;
52948;SDS011;38812;50.942;3.644;2022-07-23T08:01:23;10.85;;;6.85;;
52948;SDS011;38812;50.942;3.644;2022-07-23T08:03:49;10.80;;;6.47;;
52948;SDS011;38812;50.942;3.644;2022-07-23T08:06:14;10.27;;;6.55;;
52948;SDS011;38812;50.942;3.644;2022-07-23T08:08:39;10.95;;;7.43;;
52948;SDS011;38812;50.942;3.644;2022-07-23T08:11:05;10.63;;;6.82;;
52948;SDS011;38812;50.942;3.644;2022-07-23T08:13:30;8.23;;;6.63;;
52948;SDS011;38812;50.942;3.644;2022-07-23T08:15:56;10.38;;;6.93;;
52948;SDS011;38812;50.942;3.644;2022-07-23T08:18:21;9.75;;;7.32;;
52948;SDS011;38812;50.942;3.644;2022-07-23T08:20:46;15.40;;;7.50;;
52948;SDS011;38812;50.942;3.644;2022-07-23T08:23:12;11.85;;;5.85;;
52948;SDS011;38812;50.942;3.644;2022-07-23T08:25:38;9.98;;;6.85;;
52948;SDS011;38812;50.942;3.644;2022-07-23T08:28:07;7.55;;;6.30;;
52948;SDS011;38812;50.942;3.644;2022-07-23T08:30:36;15.43;;;6.13;;
52948;SDS011;38812;50.942;3.644;2022-07-23T08:35:45;12.05;;;6.70;;
52948;SDS011;38812;50.942;3.644;2022-07-23T08:38:16;7.18;;;6.15;;
52948;SDS011;38812;50.942;3.644;2022-07-23T08:40:44;12.55;;;7.40;;
52948;SDS011;38812;50.942;3.644;2022-07-23T08:43:13;8.25;;;5.85;;
52948;SDS011;38812;50.942;3.644;2022-07-23T08:45:40;10.35;;;6.72;;
52948;SDS011;38812;50.942;3.644;2022-07-23T08:48:08;13.35;;;6.72;;
52948;SDS011;38812;50.942;3.644;2022-07-23T08:50:36;11.02;;;6.03;;
52948;SDS011;38812;50.942;3.644;2022-07-23T08:53:05;10.43;;;6.25;;
52948;SDS011;38812;50.942;3.644;2022-07-23T08:55:32;9.57;;;6.82;;
52948;SDS011;38812;50.942;3.644;2022-07-23T08:57:57;8.07;;;5.63;;
52948;SDS011;38812;50.942;3.644;2022-07-23T09:00:22;11.80;;;5.43;;
52948;SDS011;38812;50.942;3.644;2022-07-23T09:02:48;10.23;;;6.30;;
52948;SDS011;38812;50.942;3.644;2022-07-23T09:05:15;9.15;;;5.93;;
52948;SDS011;38812;50.942;3.644;2022-07-23T09:10:28;5.53;;;4.40;;
52948;SDS011;38812;50.942;3.644;2022-07-23T09:12:53;5.70;;;4.30;;
52948;SDS011;38812;50.942;3.644;2022-07-23T09:15:19;6.43;;;4.68;;
52948;SDS011;38812;50.942;3.644;2022-07-23T09:17:44;10.30;;;4.63;;
52948;SDS011;38812;50.942;3.644;2022-07-23T09:20:14;7.50;;;4.50;;
52948;SDS011;38812;50.942;3.644;2022-07-23T09:22:44;10.18;;;4.35;;
52948;SDS011;38812;50.942;3.644;2022-07-23T09:25:12;12.40;;;5.30;;
52948;SDS011;38812;50.942;3.644;2022-07-23T09:27:47;11.05;;;5.10;;
52948;SDS011;38812;50.942;3.644;2022-07-23T09:30:22;5.65;;;5.03;;
52948;SDS011;38812;50.942;3.644;2022-07-23T09:35:54;6.72;;;3.42;;
52948;SDS011;38812;50.942;3.644;2022-07-23T09:38:21;5.72;;;3.70;;
52948;SDS011;38812;50.942;3.644;2022-07-23T09:41:04;5.57;;;3.45;;
52948;SDS011;38812;50.942;3.644;2022-07-23T09:43:36;5.90;;;3.58;;
52948;SDS011;38812;50.942;3.644;2022-07-23T09:46:18;9.75;;;4.10;;
52948;SDS011;38812;50.942;3.644;2022-07-23T09:48:49;6.72;;;4.28;;
52948;SDS011;38812;50.942;3.644;2022-07-23T09:51:16;5.70;;;4.40;;
52948;SDS011;38812;50.942;3.644;2022-07-23T09:53:54;8.45;;;3.90;;
52948;SDS011;38812;50.942;3.644;2022-07-23T09:56:20;7.00;;;4.70;;
52948;SDS011;38812;50.942;3.644;2022-07-23T09:58:46;10.52;;;4.78;;
52948;SDS011;38812;50.942;3.644;2022-07-23T10:01:25;9.50;;;5.40;;
52948;SDS011;38812;50.942;3.644;2022-07-23T10:03:52;6.85;;;4.43;;
52948;SDS011;38812;50.942;3.644;2022-07-23T10:06:18;6.95;;;4.82;;
52948;SDS011;38812;50.942;3.644;2022-07-23T10:08:43;11.38;;;5.13;;
52948;SDS011;38812;50.942;3.644;2022-07-23T10:11:15;9.98;;;5.55;;
52948;SDS011;38812;50.942;3.644;2022-07-23T10:13:42;9.45;;;4.05;;
52948;SDS011;38812;50.942;3.644;2022-07-23T10:16:13;9.00;;;3.95;;
52948;SDS011;38812;50.942;3.644;2022-07-23T10:18:39;8.77;;;4.38;;
52948;SDS011;38812;50.942;3.644;2022-07-23T10:21:05;7.40;;;4.20;;
52948;SDS011;38812;50.942;3.644;2022-07-23T10:23:34;5.22;;;3.78;;
52948;SDS011;38812;50.942;3.644;2022-07-23T10:26:12;8.03;;;4.20;;
52948;SDS011;38812;50.942;3.644;2022-07-23T10:29:02;8.60;;;3.90;;
52948;SDS011;38812;50.942;3.644;2022-07-23T10:31:41;7.70;;;3.67;;
52948;SDS011;38812;50.942;3.644;2022-07-23T10:37:14;10.77;;;4.32;;
52948;SDS011;38812;50.942;3.644;2022-07-23T10:40:08;4.75;;;2.88;;
52948;SDS011;38812;50.942;3.644;2022-07-23T10:42:35;6.45;;;3.17;;
52948;SDS011;38812;50.942;3.644;2022-07-23T10:45:01;4.25;;;2.35;;
52948;SDS011;38812;50.942;3.644;2022-07-23T10:47:46;5.05;;;3.08;;
52948;SDS011;38812;50.942;3.644;2022-07-23T10:50:21;9.23;;;4.38;;
52948;SDS011;38812;50.942;3.644;2022-07-23T10:53:29;5.10;;;2.85;;
52948;SDS011;38812;50.942;3.644;2022-07-23T10:55:52;4.95;;;3.00;;
52948;SDS011;38812;50.942;3.644;2022-07-23T10:58:18;5.40;;;2.83;;
52948;SDS011;38812;50.942;3.644;2022-07-23T11:00:45;3.78;;;2.90;;
52948;SDS011;38812;50.942;3.644;2022-07-23T11:03:27;5.38;;;3.25;;
52948;SDS011;38812;50.942;3.644;2022-07-23T11:05:57;4.07;;;2.80;;
52948;SDS011;38812;50.942;3.644;2022-07-23T11:08:23;4.20;;;2.63;;
52948;SDS011;38812;50.942;3.644;2022-07-23T11:32:06;3.50;;;2.00;;
52948;SDS011;38812;50.942;3.644;2022-07-23T11:34:53;3.63;;;2.47;;
52948;SDS011;38812;50.942;3.644;2022-07-23T11:42:29;4.88;;;2.70;;
52948;SDS011;38812;50.942;3.644;2022-07-23T11:44:55;5.63;;;2.22;;
52948;SDS011;38812;50.942;3.644;2022-07-23T11:47:22;3.67;;;2.58;;
52948;SDS011;38812;50.942;3.644;2022-07-23T11:49:53;3.40;;;2.47;;
52948;SDS011;38812;50.942;3.644;2022-07-23T11:52:19;9.88;;;2.75;;
52948;SDS011;38812;50.942;3.644;2022-07-23T11:57:15;6.03;;;2.45;;
52948;SDS011;38812;50.942;3.644;2022-07-23T11:59:40;6.13;;;2.63;;
52948;SDS011;38812;50.942;3.644;2022-07-23T12:02:07;5.68;;;2.30;;
52948;SDS011;38812;50.942;3.644;2022-07-23T12:04:39;3.75;;;2.28;;
52948;SDS011;38812;50.942;3.644;2022-07-23T12:07:22;3.92;;;2.20;;
52948;SDS011;38812;50.942;3.644;2022-07-23T12:09:59;2.97;;;1.90;;
52948;SDS011;38812;50.942;3.644;2022-07-23T12:15:07;5.90;;;3.58;;
52948;SDS011;38812;50.942;3.644;2022-07-23T12:17:34;4.43;;;2.30;;
52948;SDS011;38812;50.942;3.644;2022-07-23T12:20:03;6.60;;;2.28;;
52948;SDS011;38812;50.942;3.644;2022-07-23T12:22:44;7.43;;;2.17;;
52948;SDS011;38812;50.942;3.644;2022-07-23T12:25:22;5.50;;;2.30;;
52948;SDS011;38812;50.942;3.644;2022-07-23T12:30:37;4.40;;;2.97;;
52948;SDS011;38812;50.942;3.644;2022-07-23T12:33:08;3.22;;;2.10;;
52948;SDS011;38812;50.942;3.644;2022-07-23T12:35:43;6.38;;;2.45;;
52948;SDS011;38812;50.942;3.644;2022-07-23T12:38:12;5.60;;;2.30;;
52948;SDS011;38812;50.942;3.644;2022-07-23T12:40:43;4.57;;;2.40;;
52948;SDS011;38812;50.942;3.644;2022-07-23T12:43:11;3.20;;;2.47;;
52948;SDS011;38812;50.942;3.644;2022-07-23T12:45:45;8.82;;;2.38;;
52948;SDS011;38812;50.942;3.644;2022-07-23T12:48:28;6.78;;;2.60;;
52948;SDS011;38812;50.942;3.644;2022-07-23T12:56:05;4.43;;;2.60;;
52948;SDS011;38812;50.942;3.644;2022-07-23T12:58:44;6.72;;;2.67;;
52948;SDS011;38812;50.942;3.644;2022-07-23T13:01:10;3.15;;;2.35;;
52948;SDS011;38812;50.942;3.644;2022-07-23T13:03:55;5.93;;;3.03;;
52948;SDS011;38812;50.942;3.644;2022-07-23T13:06:55;4.43;;;2.47;;
52948;SDS011;38812;50.942;3.644;2022-07-23T13:09:28;4.07;;;2.08;;
52948;SDS011;38812;50.942;3.644;2022-07-23T13:11:55;5.90;;;2.17;;
52948;SDS011;38812;50.942;3.644;2022-07-23T13:14:21;5.47;;;2.10;;
52948;SDS011;38812;50.942;3.644;2022-07-23T13:16:48;2.63;;;1.85;;
52948;SDS011;38812;50.942;3.644;2022-07-23T13:19:15;4.68;;;2.50;;
52948;SDS011;38812;50.942;3.644;2022-07-23T13:21:41;3.72;;;2.08;;
52948;SDS011;38812;50.942;3.644;2022-07-23T13:24:07;7.10;;;2.67;;
52948;SDS011;38812;50.942;3.644;2022-07-23T13:26:34;4.05;;;2.92;;
52948;SDS011;38812;50.942;3.644;2022-07-23T13:28:59;7.68;;;2.70;;
52948;SDS011;38812;50.942;3.644;2022-07-23T13:31:24;4.32;;;3.08;;
52948;SDS011;38812;50.942;3.644;2022-07-23T13:33:50;4.10;;;2.83;;
52948;SDS011;38812;50.942;3.644;2022-07-23T13:36:15;4.32;;;2.42;;
52948;SDS011;38812;50.942;3.644;2022-07-23T13:38:41;2.40;;;2.20;;
52948;SDS011;38812;50.942;3.644;2022-07-23T13:41:06;4.50;;;2.80;;
52948;SDS011;38812;50.942;3.644;2022-07-23T13:43:32;6.07;;;2.88;;
52948;SDS011;38812;50.942;3.644;2022-07-23T13:45:59;3.65;;;2.67;;
52948;SDS011;38812;50.942;3.644;2022-07-23T13:48:24;2.95;;;2.65;;
52948;SDS011;38812;50.942;3.644;2022-07-23T13:50:50;10.90;;;3.50;;
52948;SDS011;38812;50.942;3.644;2022-07-23T13:53:17;3.55;;;2.85;;
52948;SDS011;38812;50.942;3.644;2022-07-23T13:55:45;8.07;;;4.38;;
52948;SDS011;38812;50.942;3.644;2022-07-23T13:58:12;7.65;;;3.45;;
52948;SDS011;38812;50.942;3.644;2022-07-23T14:00:40;4.85;;;3.22;;
52948;SDS011;38812;50.942;3.644;2022-07-23T14:03:07;4.05;;;3.00;;
52948;SDS011;38812;50.942;3.644;2022-07-23T14:05:33;4.32;;;3.42;;
52948;SDS011;38812;50.942;3.644;2022-07-23T14:07:58;6.10;;;3.33;;
52948;SDS011;38812;50.942;3.644;2022-07-23T14:10:24;5.00;;;3.00;;
52948;SDS011;38812;50.942;3.644;2022-07-23T14:12:50;8.07;;;4.07;;
52948;SDS011;38812;50.942;3.644;2022-07-23T14:15:17;4.72;;;2.85;;
52948;SDS011;38812;50.942;3.644;2022-07-23T14:17:44;6.93;;;3.45;;
52948;SDS011;38812;50.942;3.644;2022-07-23T14:20:11;7.00;;;3.63;;
52948;SDS011;38812;50.942;3.644;2022-07-23T14:22:38;8.63;;;3.90;;
52948;SDS011;38812;50.942;3.644;2022-07-23T14:25:05;3.60;;;3.03;;
52948;SDS011;38812;50.942;3.644;2022-07-23T14:27:31;8.57;;;3.80;;
52948;SDS011;38812;50.942;3.644;2022-07-23T14:29:57;8.13;;;3.25;;
52948;SDS011;38812;50.942;3.644;2022-07-23T14:32:23;6.45;;;3.95;;
52948;SDS011;38812;50.942;3.644;2022-07-23T14:34:49;5.03;;;3.50;;
52948;SDS011;38812;50.942;3.644;2022-07-23T14:37:14;4.97;;;3.70;;
52948;SDS011;38812;50.942;3.644;2022-07-23T14:39:41;6.90;;;3.95;;
52948;SDS011;38812;50.942;3.644;2022-07-23T14:42:07;6.40;;;3.63;;
52948;SDS011;38812;50.942;3.644;2022-07-23T14:44:34;6.00;;;3.97;;
52948;SDS011;38812;50.942;3.644;2022-07-23T14:47:00;12.82;;;4.28;;
52948;SDS011;38812;50.942;3.644;2022-07-23T14:49:26;7.50;;;4.75;;
52948;SDS011;38812;50.942;3.644;2022-07-23T14:51:52;6.00;;;4.05;;
52948;SDS011;38812;50.942;3.644;2022-07-23T14:54:18;6.32;;;4.28;;
52948;SDS011;38812;50.942;3.644;2022-07-23T14:56:44;5.35;;;4.13;;
52948;SDS011;38812;50.942;3.644;2022-07-23T14:59:11;5.63;;;4.43;;
52948;SDS011;38812;50.942;3.644;2022-07-23T15:01:36;8.38;;;3.83;;
52948;SDS011;38812;50.942;3.644;2022-07-23T15:04:02;6.90;;;4.22;;
52948;SDS011;38812;50.942;3.644;2022-07-23T15:06:29;7.43;;;4.57;;
52948;SDS011;38812;50.942;3.644;2022-07-23T15:08:54;11.52;;;5.05;;
52948;SDS011;38812;50.942;3.644;2022-07-23T15:11:20;6.35;;;4.38;;
52948;SDS011;38812;50.942;3.644;2022-07-23T15:13:45;4.90;;;4.40;;
52948;SDS011;38812;50.942;3.644;2022-07-23T15:16:10;8.32;;;5.30;;
52948;SDS011;38812;50.942;3.644;2022-07-23T15:18:36;7.07;;;4.88;;
52948;SDS011;38812;50.942;3.644;2022-07-23T15:21:02;11.88;;;4.38;;
52948;SDS011;38812;50.942;3.644;2022-07-23T15:23:27;6.18;;;3.83;;
52948;SDS011;38812;50.942;3.644;2022-07-23T15:25:54;10.27;;;5.25;;
52948;SDS011;38812;50.942;3.644;2022-07-23T15:28:20;5.90;;;4.03;;
52948;SDS011;38812;50.942;3.644;2022-07-23T15:30:46;6.90;;;3.90;;
52948;SDS011;38812;50.942;3.644;2022-07-23T15:33:12;5.90;;;3.53;;
52948;SDS011;38812;50.942;3.644;2022-07-23T15:35:37;7.13;;;5.13;;